sensor_id;sensor_type;location;lat;lon;timestamp;temperature;humidity
9383;DHT22;4731;49.708;10.816;2023-06-22T00:01:14;20.80;99.90
9383;DHT22;4731;49.708;10.816;2023-06-22T00:03:41;18.90;99.90
9383;DHT22;4731;49.708;10.816;2023-06-22T00:06:08;20.80;99.90
9383;DHT22;4731;49.708;10.816;2023-06-22T00:08:34;18.80;99.90
9383;DHT22;4731;49.708;10.816;2023-06-22T00:11:01;19.60;99.90
9383;DHT22;4731;49.708;10.816;2023-06-22T00:13:28;20.30;99.90
9383;DHT22;4731;49.708;10.816;2023-06-22T00:15:56;18.60;99.90
9383;DHT22;4731;49.708;10.816;2023-06-22T00:18:23;18.60;99.90
9383;DHT22;4731;49.708;10.816;2023-06-22T00:20:53;18.60;99.90
9383;DHT22;4731;49.708;10.816;2023-06-22T00:23:22;19.80;99.90
9383;DHT22;4731;49.708;10.816;2023-06-22T00:25:50;18.60;99.90
9383;DHT22;4731;49.708;10.816;2023-06-22T00:28:16;18.60;99.90
9383;DHT22;4731;49.708;10.816;2023-06-22T00:30:43;19.80;99.90
9383;DHT22;4731;49.708;10.816;2023-06-22T00:33:12;18.60;99.90
9383;DHT22;4731;49.708;10.816;2023-06-22T00:35:39;18.50;99.90
9383;DHT22;4731;49.708;10.816;2023-06-22T00:38:06;19.40;99.90
9383;DHT22;4731;49.708;10.816;2023-06-22T00:40:33;19.00;99.90
9383;DHT22;4731;49.708;10.816;2023-06-22T00:43:00;18.40;99.90
9383;DHT22;4731;49.708;10.816;2023-06-22T00:45:27;21.20;99.90
9383;DHT22;4731;49.708;10.816;2023-06-22T00:47:55;20.50;99.90
9383;DHT22;4731;49.708;10.816;2023-06-22T00:50:25;18.30;99.90
9383;DHT22;4731;49.708;10.816;2023-06-22T00:52:54;18.30;99.90
9383;DHT22;4731;49.708;10.816;2023-06-22T00:57:49;18.30;99.90
9383;DHT22;4731;49.708;10.816;2023-06-22T01:00:16;20.80;99.90
9383;DHT22;4731;49.708;10.816;2023-06-22T01:02:45;18.30;99.90
9383;DHT22;4731;49.708;10.816;2023-06-22T01:05:16;18.30;99.90
9383;DHT22;4731;49.708;10.816;2023-06-22T01:07:54;18.40;99.90
9383;DHT22;4731;49.708;10.816;2023-06-22T01:10:28;18.50;99.90
9383;DHT22;4731;49.708;10.816;2023-06-22T01:13:02;18.70;99.90
9383;DHT22;4731;49.708;10.816;2023-06-22T01:15:31;18.60;99.90
9383;DHT22;4731;49.708;10.816;2023-06-22T01:17:59;18.60;99.90
9383;DHT22;4731;49.708;10.816;2023-06-22T01:20:28;18.70;99.90
9383;DHT22;4731;49.708;10.816;2023-06-22T01:23:07;18.60;99.90
9383;DHT22;4731;49.708;10.816;2023-06-22T01:25:43;18.60;99.90
9383;DHT22;4731;49.708;10.816;2023-06-22T01:28:23;18.50;99.90
9383;DHT22;4731;49.708;10.816;2023-06-22T01:30:52;18.40;99.90
9383;DHT22;4731;49.708;10.816;2023-06-22T01:33:29;18.30;99.90
9383;DHT22;4731;49.708;10.816;2023-06-22T01:35:58;19.30;99.90
9383;DHT22;4731;49.708;10.816;2023-06-22T01:38:25;18.20;99.90
9383;DHT22;4731;49.708;10.816;2023-06-22T01:40:52;18.40;99.90
9383;DHT22;4731;49.708;10.816;2023-06-22T01:43:20;19.40;99.90
9383;DHT22;4731;49.708;10.816;2023-06-22T01:45:48;18.30;99.90
9383;DHT22;4731;49.708;10.816;2023-06-22T01:48:17;18.30;99.90
9383;DHT22;4731;49.708;10.816;2023-06-22T01:50:45;20.60;99.90
9383;DHT22;4731;49.708;10.816;2023-06-22T01:53:12;18.50;99.90
9383;DHT22;4731;49.708;10.816;2023-06-22T01:55:38;18.50;99.90
9383;DHT22;4731;49.708;10.816;2023-06-22T01:58:05;19.40;99.90
9383;DHT22;4731;49.708;10.816;2023-06-22T02:00:34;18.50;99.90
9383;DHT22;4731;49.708;10.816;2023-06-22T02:03:08;20.10;99.90
9383;DHT22;4731;49.708;10.816;2023-06-22T02:05:42;18.00;99.90
9383;DHT22;4731;49.708;10.816;2023-06-22T02:08:12;18.00;99.90
9383;DHT22;4731;49.708;10.816;2023-06-22T02:10:42;18.80;99.90
9383;DHT22;4731;49.708;10.816;2023-06-22T02:13:10;18.10;99.90
9383;DHT22;4731;49.708;10.816;2023-06-22T02:15:37;19.10;99.90
9383;DHT22;4731;49.708;10.816;2023-06-22T02:18:04;18.10;99.90
9383;DHT22;4731;49.708;10.816;2023-06-22T02:20:31;18.10;99.90
9383;DHT22;4731;49.708;10.816;2023-06-22T02:23:00;18.10;99.90
9383;DHT22;4731;49.708;10.816;2023-06-22T02:25:26;19.70;99.90
9383;DHT22;4731;49.708;10.816;2023-06-22T02:27:53;18.00;99.90
9383;DHT22;4731;49.708;10.816;2023-06-22T02:30:20;20.50;99.90
9383;DHT22;4731;49.708;10.816;2023-06-22T02:32:47;19.80;99.90
9383;DHT22;4731;49.708;10.816;2023-06-22T02:35:13;18.00;99.90
9383;DHT22;4731;49.708;10.816;2023-06-22T02:37:40;17.90;99.90
9383;DHT22;4731;49.708;10.816;2023-06-22T02:42:37;17.80;99.90
9383;DHT22;4731;49.708;10.816;2023-06-22T02:45:05;17.80;99.90
9383;DHT22;4731;49.708;10.816;2023-06-22T02:47:32;17.90;99.90
9383;DHT22;4731;49.708;10.816;2023-06-22T02:49:58;18.00;99.90
9383;DHT22;4731;49.708;10.816;2023-06-22T02:52:25;18.00;99.90
9383;DHT22;4731;49.708;10.816;2023-06-22T02:54:52;19.50;99.90
9383;DHT22;4731;49.708;10.816;2023-06-22T02:57:20;18.20;99.90
9383;DHT22;4731;49.708;10.816;2023-06-22T02:59:47;18.30;99.90
9383;DHT22;4731;49.708;10.816;2023-06-22T03:02:14;19.10;99.90
9383;DHT22;4731;49.708;10.816;2023-06-22T03:07:09;18.30;99.90
9383;DHT22;4731;49.708;10.816;2023-06-22T03:09:35;19.00;99.90
9383;DHT22;4731;49.708;10.816;2023-06-22T03:12:02;18.40;99.90
9383;DHT22;4731;49.708;10.816;2023-06-22T03:14:31;18.30;99.90
9383;DHT22;4731;49.708;10.816;2023-06-22T03:16:58;16.90;99.90
9383;DHT22;4731;49.708;10.816;2023-06-22T03:19:28;19.10;99.90
9383;DHT22;4731;49.708;10.816;2023-06-22T03:21:59;20.70;99.90
9383;DHT22;4731;49.708;10.816;2023-06-22T03:24:26;18.40;99.90
9383;DHT22;4731;49.708;10.816;2023-06-22T03:26:55;18.50;99.90
9383;DHT22;4731;49.708;10.816;2023-06-22T03:29:22;19.70;99.90
9383;DHT22;4731;49.708;10.816;2023-06-22T03:31:50;18.60;99.90
9383;DHT22;4731;49.708;10.816;2023-06-22T03:34:17;19.40;99.90
9383;DHT22;4731;49.708;10.816;2023-06-22T03:36:44;21.00;99.90
9383;DHT22;4731;49.708;10.816;2023-06-22T03:39:11;18.30;99.90
9383;DHT22;4731;49.708;10.816;2023-06-22T03:41:38;19.20;99.90
9383;DHT22;4731;49.708;10.816;2023-06-22T03:44:05;19.90;99.90
9383;DHT22;4731;49.708;10.816;2023-06-22T03:46:32;18.30;99.90
9383;DHT22;4731;49.708;10.816;2023-06-22T03:51:30;18.40;99.90
9383;DHT22;4731;49.708;10.816;2023-06-22T03:53:57;18.40;99.90
9383;DHT22;4731;49.708;10.816;2023-06-22T03:56:23;18.40;99.90
9383;DHT22;4731;49.708;10.816;2023-06-22T03:58:50;18.40;99.90
9383;DHT22;4731;49.708;10.816;2023-06-22T04:01:17;18.40;99.90
9383;DHT22;4731;49.708;10.816;2023-06-22T04:03:44;18.50;99.90
9383;DHT22;4731;49.708;10.816;2023-06-22T04:08:41;18.50;99.90
9383;DHT22;4731;49.708;10.816;2023-06-22T04:13:36;18.70;99.90
9383;DHT22;4731;49.708;10.816;2023-06-22T04:16:03;19.00;99.90
9383;DHT22;4731;49.708;10.816;2023-06-22T04:18:30;18.60;99.90
9383;DHT22;4731;49.708;10.816;2023-06-22T04:20:57;18.70;99.90
9383;DHT22;4731;49.708;10.816;2023-06-22T04:28:22;18.70;99.90
9383;DHT22;4731;49.708;10.816;2023-06-22T04:30:48;18.80;99.90
9383;DHT22;4731;49.708;10.816;2023-06-22T04:33:16;18.70;99.90
9383;DHT22;4731;49.708;10.816;2023-06-22T04:35:45;18.70;99.90
9383;DHT22;4731;49.708;10.816;2023-06-22T04:38:12;20.10;99.90
9383;DHT22;4731;49.708;10.816;2023-06-22T04:43:08;18.80;99.90
9383;DHT22;4731;49.708;10.816;2023-06-22T04:45:35;19.00;99.90
9383;DHT22;4731;49.708;10.816;2023-06-22T04:48:05;19.10;99.90
9383;DHT22;4731;49.708;10.816;2023-06-22T04:50:31;19.20;99.90
9383;DHT22;4731;49.708;10.816;2023-06-22T04:52:58;19.40;99.90
9383;DHT22;4731;49.708;10.816;2023-06-22T04:57:53;19.50;99.90
9383;DHT22;4731;49.708;10.816;2023-06-22T05:00:21;19.70;99.90
9383;DHT22;4731;49.708;10.816;2023-06-22T05:02:48;19.90;99.90
9383;DHT22;4731;49.708;10.816;2023-06-22T05:05:15;20.10;99.90
9383;DHT22;4731;49.708;10.816;2023-06-22T05:07:44;20.30;99.90
9383;DHT22;4731;49.708;10.816;2023-06-22T05:10:14;21.00;99.90
9383;DHT22;4731;49.708;10.816;2023-06-22T05:12:41;21.30;99.90
9383;DHT22;4731;49.708;10.816;2023-06-22T05:15:10;21.30;99.90
9383;DHT22;4731;49.708;10.816;2023-06-22T05:17:37;23.50;99.90
9383;DHT22;4731;49.708;10.816;2023-06-22T05:20:09;21.10;99.90
9383;DHT22;4731;49.708;10.816;2023-06-22T05:22:35;21.10;99.90
9383;DHT22;4731;49.708;10.816;2023-06-22T05:25:05;22.50;99.90
9383;DHT22;4731;49.708;10.816;2023-06-22T05:27:32;21.30;99.90
9383;DHT22;4731;49.708;10.816;2023-06-22T05:29:59;21.40;99.90
9383;DHT22;4731;49.708;10.816;2023-06-22T05:32:27;22.40;99.90
9383;DHT22;4731;49.708;10.816;2023-06-22T05:34:54;22.00;99.90
9383;DHT22;4731;49.708;10.816;2023-06-22T05:37:21;21.50;99.90
9383;DHT22;4731;49.708;10.816;2023-06-22T05:39:48;21.90;99.90
9383;DHT22;4731;49.708;10.816;2023-06-22T05:42:15;21.90;99.90
9383;DHT22;4731;49.708;10.816;2023-06-22T05:44:42;22.10;99.90
9383;DHT22;4731;49.708;10.816;2023-06-22T05:47:09;23.30;99.90
9383;DHT22;4731;49.708;10.816;2023-06-22T05:52:05;22.60;99.90
9383;DHT22;4731;49.708;10.816;2023-06-22T05:54:31;22.80;99.90
9383;DHT22;4731;49.708;10.816;2023-06-22T05:56:59;23.10;99.90
9383;DHT22;4731;49.708;10.816;2023-06-22T05:59:26;24.50;99.90
9383;DHT22;4731;49.708;10.816;2023-06-22T06:04:20;23.60;99.90
9383;DHT22;4731;49.708;10.816;2023-06-22T06:06:48;23.90;99.90
9383;DHT22;4731;49.708;10.816;2023-06-22T06:09:15;23.70;99.90
9383;DHT22;4731;49.708;10.816;2023-06-22T06:11:43;23.60;99.90
9383;DHT22;4731;49.708;10.816;2023-06-22T06:14:10;23.60;99.90
9383;DHT22;4731;49.708;10.816;2023-06-22T06:16:36;23.70;99.90
9383;DHT22;4731;49.708;10.816;2023-06-22T06:19:03;23.60;99.90
9383;DHT22;4731;49.708;10.816;2023-06-22T06:21:30;23.90;99.90
9383;DHT22;4731;49.708;10.816;2023-06-22T06:23:58;24.00;99.90
9383;DHT22;4731;49.708;10.816;2023-06-22T06:26:25;24.20;99.90
9383;DHT22;4731;49.708;10.816;2023-06-22T06:28:55;24.80;99.90
9383;DHT22;4731;49.708;10.816;2023-06-22T06:31:22;24.60;99.90
9383;DHT22;4731;49.708;10.816;2023-06-22T06:33:49;24.40;99.90
9383;DHT22;4731;49.708;10.816;2023-06-22T06:36:16;24.20;99.90
9383;DHT22;4731;49.708;10.816;2023-06-22T06:38:42;24.40;99.90
9383;DHT22;4731;49.708;10.816;2023-06-22T06:41:11;24.80;99.90
9383;DHT22;4731;49.708;10.816;2023-06-22T06:43:38;25.20;99.90
9383;DHT22;4731;49.708;10.816;2023-06-22T06:46:04;25.20;99.90
9383;DHT22;4731;49.708;10.816;2023-06-22T06:48:31;24.80;99.90
9383;DHT22;4731;49.708;10.816;2023-06-22T06:50:58;24.80;99.90
9383;DHT22;4731;49.708;10.816;2023-06-22T06:53:25;25.00;99.90
9383;DHT22;4731;49.708;10.816;2023-06-22T06:55:52;26.40;99.90
9383;DHT22;4731;49.708;10.816;2023-06-22T06:58:20;25.00;99.90
9383;DHT22;4731;49.708;10.816;2023-06-22T07:00:48;25.30;99.90
9383;DHT22;4731;49.708;10.816;2023-06-22T07:03:15;25.60;99.90
9383;DHT22;4731;49.708;10.816;2023-06-22T07:05:41;25.40;99.90
9383;DHT22;4731;49.708;10.816;2023-06-22T07:08:08;25.40;99.90
9383;DHT22;4731;49.708;10.816;2023-06-22T07:10:35;25.00;99.90
9383;DHT22;4731;49.708;10.816;2023-06-22T07:13:01;26.70;99.90
9383;DHT22;4731;49.708;10.816;2023-06-22T07:15:30;28.70;99.90
9383;DHT22;4731;49.708;10.816;2023-06-22T07:17:56;27.10;99.90
9383;DHT22;4731;49.708;10.816;2023-06-22T07:20:23;26.30;99.90
9383;DHT22;4731;49.708;10.816;2023-06-22T07:22:50;26.30;99.90
9383;DHT22;4731;49.708;10.816;2023-06-22T07:25:17;26.20;99.90
9383;DHT22;4731;49.708;10.816;2023-06-22T07:27:45;26.00;99.90
9383;DHT22;4731;49.708;10.816;2023-06-22T07:30:13;25.80;99.90
9383;DHT22;4731;49.708;10.816;2023-06-22T07:32:41;26.10;99.90
9383;DHT22;4731;49.708;10.816;2023-06-22T07:35:08;26.30;99.90
9383;DHT22;4731;49.708;10.816;2023-06-22T07:37:35;26.00;99.90
9383;DHT22;4731;49.708;10.816;2023-06-22T07:40:02;26.00;99.90
9383;DHT22;4731;49.708;10.816;2023-06-22T07:42:32;25.90;99.90
9383;DHT22;4731;49.708;10.816;2023-06-22T07:44:59;26.40;99.90
9383;DHT22;4731;49.708;10.816;2023-06-22T07:47:27;26.70;99.90
9383;DHT22;4731;49.708;10.816;2023-06-22T07:49:55;26.40;99.90
9383;DHT22;4731;49.708;10.816;2023-06-22T07:52:23;26.50;99.90
9383;DHT22;4731;49.708;10.816;2023-06-22T07:54:50;26.70;99.90
9383;DHT22;4731;49.708;10.816;2023-06-22T07:57:17;26.50;99.90
9383;DHT22;4731;49.708;10.816;2023-06-22T07:59:44;27.70;99.90
9383;DHT22;4731;49.708;10.816;2023-06-22T08:02:11;26.80;99.90
9383;DHT22;4731;49.708;10.816;2023-06-22T08:07:06;27.20;99.90
9383;DHT22;4731;49.708;10.816;2023-06-22T08:09:33;28.80;99.90
9383;DHT22;4731;49.708;10.816;2023-06-22T08:12:01;27.60;99.90
9383;DHT22;4731;49.708;10.816;2023-06-22T08:14:29;28.10;99.90
9383;DHT22;4731;49.708;10.816;2023-06-22T08:16:56;28.40;99.90
9383;DHT22;4731;49.708;10.816;2023-06-22T08:21:50;28.50;99.90
9383;DHT22;4731;49.708;10.816;2023-06-22T08:24:18;28.10;99.90
9383;DHT22;4731;49.708;10.816;2023-06-22T08:26:45;29.50;99.90
9383;DHT22;4731;49.708;10.816;2023-06-22T08:29:11;28.60;99.90
9383;DHT22;4731;49.708;10.816;2023-06-22T08:31:38;28.90;99.90
9383;DHT22;4731;49.708;10.816;2023-06-22T08:34:05;28.90;99.90
9383;DHT22;4731;49.708;10.816;2023-06-22T08:36:32;29.20;99.90
9383;DHT22;4731;49.708;10.816;2023-06-22T08:39:03;29.50;99.90
9383;DHT22;4731;49.708;10.816;2023-06-22T08:41:31;29.40;99.90
9383;DHT22;4731;49.708;10.816;2023-06-22T08:46:25;29.00;99.90
9383;DHT22;4731;49.708;10.816;2023-06-22T08:48:56;28.90;99.90
9383;DHT22;4731;49.708;10.816;2023-06-22T08:51:23;28.30;99.90
9383;DHT22;4731;49.708;10.816;2023-06-22T08:53:50;30.00;99.90
9383;DHT22;4731;49.708;10.816;2023-06-22T08:58:46;29.10;99.90
9383;DHT22;4731;49.708;10.816;2023-06-22T09:03:40;29.10;99.90
9383;DHT22;4731;49.708;10.816;2023-06-22T09:06:07;29.30;99.90
9383;DHT22;4731;49.708;10.816;2023-06-22T09:08:35;29.00;99.90
9383;DHT22;4731;49.708;10.816;2023-06-22T09:11:02;29.30;99.90
9383;DHT22;4731;49.708;10.816;2023-06-22T09:13:30;29.50;99.90
9383;DHT22;4731;49.708;10.816;2023-06-22T09:15:58;28.90;99.90
9383;DHT22;4731;49.708;10.816;2023-06-22T09:18:25;29.70;99.90
9383;DHT22;4731;49.708;10.816;2023-06-22T09:20:52;30.10;99.90
9383;DHT22;4731;49.708;10.816;2023-06-22T09:23:19;29.90;99.90
9383;DHT22;4731;49.708;10.816;2023-06-22T09:25:45;30.40;99.90
9383;DHT22;4731;49.708;10.816;2023-06-22T09:28:13;30.50;99.90
9383;DHT22;4731;49.708;10.816;2023-06-22T09:30:40;30.40;99.90
9383;DHT22;4731;49.708;10.816;2023-06-22T09:33:08;30.20;99.90
9383;DHT22;4731;49.708;10.816;2023-06-22T09:35:34;30.10;99.90
9383;DHT22;4731;49.708;10.816;2023-06-22T09:38:01;30.20;99.90
9383;DHT22;4731;49.708;10.816;2023-06-22T09:40:28;30.50;99.90
9383;DHT22;4731;49.708;10.816;2023-06-22T09:45:22;31.00;99.90
9383;DHT22;4731;49.708;10.816;2023-06-22T09:50:17;31.40;99.90
9383;DHT22;4731;49.708;10.816;2023-06-22T09:52:44;32.00;99.90
9383;DHT22;4731;49.708;10.816;2023-06-22T09:55:16;32.10;99.90
9383;DHT22;4731;49.708;10.816;2023-06-22T09:57:43;31.70;99.90
9383;DHT22;4731;49.708;10.816;2023-06-22T10:00:11;31.50;99.90
9383;DHT22;4731;49.708;10.816;2023-06-22T10:02:38;31.30;99.90
9383;DHT22;4731;49.708;10.816;2023-06-22T10:05:05;31.70;99.90
9383;DHT22;4731;49.708;10.816;2023-06-22T10:07:37;31.80;99.90
9383;DHT22;4731;49.708;10.816;2023-06-22T10:10:08;32.00;99.90
9383;DHT22;4731;49.708;10.816;2023-06-22T10:12:35;32.00;99.90
9383;DHT22;4731;49.708;10.816;2023-06-22T10:15:02;32.10;99.90
9383;DHT22;4731;49.708;10.816;2023-06-22T10:17:29;32.20;99.90
9383;DHT22;4731;49.708;10.816;2023-06-22T10:19:56;32.40;99.90
9383;DHT22;4731;49.708;10.816;2023-06-22T10:22:23;32.90;99.90
9383;DHT22;4731;49.708;10.816;2023-06-22T10:27:18;33.00;99.90
9383;DHT22;4731;49.708;10.816;2023-06-22T10:29:45;33.30;99.90
9383;DHT22;4731;49.708;10.816;2023-06-22T10:32:12;33.80;99.90
9383;DHT22;4731;49.708;10.816;2023-06-22T10:34:39;32.50;99.90
9383;DHT22;4731;49.708;10.816;2023-06-22T10:37:06;32.50;99.90
9383;DHT22;4731;49.708;10.816;2023-06-22T10:39:33;33.00;99.90
9383;DHT22;4731;49.708;10.816;2023-06-22T10:42:01;32.90;99.90
9383;DHT22;4731;49.708;10.816;2023-06-22T10:46:55;32.90;99.90
9383;DHT22;4731;49.708;10.816;2023-06-22T10:51:49;32.70;99.90
9383;DHT22;4731;49.708;10.816;2023-06-22T10:54:16;32.80;99.90
9383;DHT22;4731;49.708;10.816;2023-06-22T10:56:44;33.30;99.90
9383;DHT22;4731;49.708;10.816;2023-06-22T11:01:40;33.00;99.90
9383;DHT22;4731;49.708;10.816;2023-06-22T11:04:06;33.20;99.90
9383;DHT22;4731;49.708;10.816;2023-06-22T11:06:33;32.60;99.90
9383;DHT22;4731;49.708;10.816;2023-06-22T11:09:00;32.90;99.90
9383;DHT22;4731;49.708;10.816;2023-06-22T11:11:27;32.80;99.90
9383;DHT22;4731;49.708;10.816;2023-06-22T11:13:54;32.80;99.90
9383;DHT22;4731;49.708;10.816;2023-06-22T11:16:22;32.90;99.90
9383;DHT22;4731;49.708;10.816;2023-06-22T11:18:49;32.20;99.90
9383;DHT22;4731;49.708;10.816;2023-06-22T11:21:16;32.20;99.90
9383;DHT22;4731;49.708;10.816;2023-06-22T11:23:43;32.80;99.90
9383;DHT22;4731;49.708;10.816;2023-06-22T11:26:10;33.20;99.90
9383;DHT22;4731;49.708;10.816;2023-06-22T11:28:36;33.20;99.90
9383;DHT22;4731;49.708;10.816;2023-06-22T11:31:03;32.50;99.90
9383;DHT22;4731;49.708;10.816;2023-06-22T11:38:28;32.80;99.90
9383;DHT22;4731;49.708;10.816;2023-06-22T11:40:57;33.10;99.90
9383;DHT22;4731;49.708;10.816;2023-06-22T11:43:24;33.60;99.90
9383;DHT22;4731;49.708;10.816;2023-06-22T11:45:50;33.20;99.90
9383;DHT22;4731;49.708;10.816;2023-06-22T11:48:17;33.60;99.90
9383;DHT22;4731;49.708;10.816;2023-06-22T11:50:46;33.90;99.90
9383;DHT22;4731;49.708;10.816;2023-06-22T11:53:12;33.80;99.90
9383;DHT22;4731;49.708;10.816;2023-06-22T11:55:42;33.50;99.90
9383;DHT22;4731;49.708;10.816;2023-06-22T11:58:08;33.20;99.90
9383;DHT22;4731;49.708;10.816;2023-06-22T12:00:40;33.90;99.90
9383;DHT22;4731;49.708;10.816;2023-06-22T12:03:07;34.80;99.90
9383;DHT22;4731;49.708;10.816;2023-06-22T12:05:34;34.50;99.90
9383;DHT22;4731;49.708;10.816;2023-06-22T12:15:25;33.80;99.90
9383;DHT22;4731;49.708;10.816;2023-06-22T12:17:52;33.90;99.90
9383;DHT22;4731;49.708;10.816;2023-06-22T12:20:19;33.30;99.90
9383;DHT22;4731;49.708;10.816;2023-06-22T12:27:45;34.90;99.90
9383;DHT22;4731;49.708;10.816;2023-06-22T12:35:07;34.50;99.90
9383;DHT22;4731;49.708;10.816;2023-06-22T12:37:39;34.00;99.90
9383;DHT22;4731;49.708;10.816;2023-06-22T12:40:07;33.60;99.90
9383;DHT22;4731;49.708;10.816;2023-06-22T12:42:36;33.70;99.90
9383;DHT22;4731;49.708;10.816;2023-06-22T12:45:03;33.80;99.90
9383;DHT22;4731;49.708;10.816;2023-06-22T12:47:30;33.70;99.90
9383;DHT22;4731;49.708;10.816;2023-06-22T12:59:48;35.70;99.90
9383;DHT22;4731;49.708;10.816;2023-06-22T13:02:15;35.50;99.90
9383;DHT22;4731;49.708;10.816;2023-06-22T13:07:09;34.90;99.90
9383;DHT22;4731;49.708;10.816;2023-06-22T13:09:37;34.20;99.90
9383;DHT22;4731;49.708;10.816;2023-06-22T13:12:04;34.60;99.90
9383;DHT22;4731;49.708;10.816;2023-06-22T13:14:31;34.30;99.90
9383;DHT22;4731;49.708;10.816;2023-06-22T13:16:59;34.30;99.90
9383;DHT22;4731;49.708;10.816;2023-06-22T13:21:57;34.10;99.90
9383;DHT22;4731;49.708;10.816;2023-06-22T13:24:24;34.10;99.90
9383;DHT22;4731;49.708;10.816;2023-06-22T13:26:51;34.50;99.90
9383;DHT22;4731;49.708;10.816;2023-06-22T13:29:18;34.80;99.90
9383;DHT22;4731;49.708;10.816;2023-06-22T13:31:45;35.20;99.90
9383;DHT22;4731;49.708;10.816;2023-06-22T13:34:13;35.60;99.90
9383;DHT22;4731;49.708;10.816;2023-06-22T13:36:39;35.40;99.90
9383;DHT22;4731;49.708;10.816;2023-06-22T13:39:06;34.00;99.90
9383;DHT22;4731;49.708;10.816;2023-06-22T13:41:33;34.60;99.90
9383;DHT22;4731;49.708;10.816;2023-06-22T13:44:00;34.70;99.90
9383;DHT22;4731;49.708;10.816;2023-06-22T13:46:27;35.00;99.90
9383;DHT22;4731;49.708;10.816;2023-06-22T13:48:58;35.00;99.90
9383;DHT22;4731;49.708;10.816;2023-06-22T13:51:26;35.20;99.90
9383;DHT22;4731;49.708;10.816;2023-06-22T13:53:53;35.20;99.90
9383;DHT22;4731;49.708;10.816;2023-06-22T13:56:20;34.60;99.90
9383;DHT22;4731;49.708;10.816;2023-06-22T13:58:47;34.20;99.90
9383;DHT22;4731;49.708;10.816;2023-06-22T14:03:41;33.70;99.90
9383;DHT22;4731;49.708;10.816;2023-06-22T14:06:16;31.70;99.90
9383;DHT22;4731;49.708;10.816;2023-06-22T14:13:39;35.10;99.90
9383;DHT22;4731;49.708;10.816;2023-06-22T14:18:34;35.90;99.90
9383;DHT22;4731;49.708;10.816;2023-06-22T14:21:01;36.30;99.90
9383;DHT22;4731;49.708;10.816;2023-06-22T14:23:28;36.40;99.90
9383;DHT22;4731;49.708;10.816;2023-06-22T14:25:56;36.70;99.90
9383;DHT22;4731;49.708;10.816;2023-06-22T14:28:23;36.40;99.90
9383;DHT22;4731;49.708;10.816;2023-06-22T14:30:50;36.40;99.90
9383;DHT22;4731;49.708;10.816;2023-06-22T14:33:17;36.60;99.90
9383;DHT22;4731;49.708;10.816;2023-06-22T14:35:44;35.60;99.90
9383;DHT22;4731;49.708;10.816;2023-06-22T14:38:11;35.80;99.90
9383;DHT22;4731;49.708;10.816;2023-06-22T14:40:38;34.70;99.90
9383;DHT22;4731;49.708;10.816;2023-06-22T14:43:06;35.10;99.90
9383;DHT22;4731;49.708;10.816;2023-06-22T14:45:33;35.00;99.90
9383;DHT22;4731;49.708;10.816;2023-06-22T14:50:27;34.70;99.90
9383;DHT22;4731;49.708;10.816;2023-06-22T14:55:21;34.50;99.90
9383;DHT22;4731;49.708;10.816;2023-06-22T14:57:48;34.40;99.90
9383;DHT22;4731;49.708;10.816;2023-06-22T15:00:17;34.40;99.90
9383;DHT22;4731;49.708;10.816;2023-06-22T15:02:44;34.30;99.90
9383;DHT22;4731;49.708;10.816;2023-06-22T15:05:11;34.50;99.90
9383;DHT22;4731;49.708;10.816;2023-06-22T15:07:38;34.70;99.90
9383;DHT22;4731;49.708;10.816;2023-06-22T15:10:06;34.80;99.90
9383;DHT22;4731;49.708;10.816;2023-06-22T15:12:33;32.80;99.90
9383;DHT22;4731;49.708;10.816;2023-06-22T15:15:00;34.40;99.90
9383;DHT22;4731;49.708;10.816;2023-06-22T15:17:29;34.30;99.90
9383;DHT22;4731;49.708;10.816;2023-06-22T15:19:58;33.90;99.90
9383;DHT22;4731;49.708;10.816;2023-06-22T15:22:25;34.20;99.90
9383;DHT22;4731;49.708;10.816;2023-06-22T15:24:52;34.20;99.90
9383;DHT22;4731;49.708;10.816;2023-06-22T15:27:19;34.20;99.90
9383;DHT22;4731;49.708;10.816;2023-06-22T15:29:46;34.20;99.90
9383;DHT22;4731;49.708;10.816;2023-06-22T15:32:13;34.40;99.90
9383;DHT22;4731;49.708;10.816;2023-06-22T15:37:09;34.70;99.90
9383;DHT22;4731;49.708;10.816;2023-06-22T15:39:36;34.80;99.90
9383;DHT22;4731;49.708;10.816;2023-06-22T15:42:06;34.80;99.90
9383;DHT22;4731;49.708;10.816;2023-06-22T15:47:01;34.50;99.90
9383;DHT22;4731;49.708;10.816;2023-06-22T15:49:29;34.50;99.90
9383;DHT22;4731;49.708;10.816;2023-06-22T15:56:52;34.40;99.90
9383;DHT22;4731;49.708;10.816;2023-06-22T15:59:20;34.20;99.90
9383;DHT22;4731;49.708;10.816;2023-06-22T16:01:46;33.90;99.90
9383;DHT22;4731;49.708;10.816;2023-06-22T16:04:13;34.00;99.90
9383;DHT22;4731;49.708;10.816;2023-06-22T16:06:40;34.10;99.90
9383;DHT22;4731;49.708;10.816;2023-06-22T16:11:35;34.00;99.90
9383;DHT22;4731;49.708;10.816;2023-06-22T16:14:02;33.90;99.90
9383;DHT22;4731;49.708;10.816;2023-06-22T16:16:28;34.10;99.90
9383;DHT22;4731;49.708;10.816;2023-06-22T16:18:55;34.10;99.90
9383;DHT22;4731;49.708;10.816;2023-06-22T16:21:22;34.20;99.90
9383;DHT22;4731;49.708;10.816;2023-06-22T16:23:49;34.20;99.90
9383;DHT22;4731;49.708;10.816;2023-06-22T16:28:44;34.10;99.90
9383;DHT22;4731;49.708;10.816;2023-06-22T16:31:10;34.30;99.90
9383;DHT22;4731;49.708;10.816;2023-06-22T16:33:37;34.10;99.90
9383;DHT22;4731;49.708;10.816;2023-06-22T16:36:04;34.00;99.90
9383;DHT22;4731;49.708;10.816;2023-06-22T16:38:31;34.10;99.90
9383;DHT22;4731;49.708;10.816;2023-06-22T16:40:59;34.10;99.90
9383;DHT22;4731;49.708;10.816;2023-06-22T16:43:28;34.10;99.90
9383;DHT22;4731;49.708;10.816;2023-06-22T16:45:55;33.90;99.90
9383;DHT22;4731;49.708;10.816;2023-06-22T16:50:49;33.70;99.90
9383;DHT22;4731;49.708;10.816;2023-06-22T16:53:17;33.50;99.90
9383;DHT22;4731;49.708;10.816;2023-06-22T16:55:47;33.50;99.90
9383;DHT22;4731;49.708;10.816;2023-06-22T16:58:15;33.30;99.90
9383;DHT22;4731;49.708;10.816;2023-06-22T17:00:46;33.30;99.90
9383;DHT22;4731;49.708;10.816;2023-06-22T17:03:17;33.30;99.90
9383;DHT22;4731;49.708;10.816;2023-06-22T17:05:46;33.20;99.90
9383;DHT22;4731;49.708;10.816;2023-06-22T17:08:15;33.20;99.90
9383;DHT22;4731;49.708;10.816;2023-06-22T17:10:43;33.20;99.90
9383;DHT22;4731;49.708;10.816;2023-06-22T17:13:10;33.20;99.90
9383;DHT22;4731;49.708;10.816;2023-06-22T17:15:39;33.30;99.90
9383;DHT22;4731;49.708;10.816;2023-06-22T17:18:09;33.30;99.90
9383;DHT22;4731;49.708;10.816;2023-06-22T17:20:38;33.10;99.90
9383;DHT22;4731;49.708;10.816;2023-06-22T17:23:05;32.90;99.90
9383;DHT22;4731;49.708;10.816;2023-06-22T17:25:33;32.80;99.90
9383;DHT22;4731;49.708;10.816;2023-06-22T17:28:02;32.70;99.90
9383;DHT22;4731;49.708;10.816;2023-06-22T17:30:29;32.80;99.90
9383;DHT22;4731;49.708;10.816;2023-06-22T17:32:57;32.60;99.90
9383;DHT22;4731;49.708;10.816;2023-06-22T17:35:29;32.60;99.90
9383;DHT22;4731;49.708;10.816;2023-06-22T17:37:58;32.40;99.90
9383;DHT22;4731;49.708;10.816;2023-06-22T17:40:26;32.20;99.90
9383;DHT22;4731;49.708;10.816;2023-06-22T17:43:02;32.20;99.90
9383;DHT22;4731;49.708;10.816;2023-06-22T17:45:30;32.20;99.90
9383;DHT22;4731;49.708;10.816;2023-06-22T17:47:58;32.10;99.90
9383;DHT22;4731;49.708;10.816;2023-06-22T17:52:54;31.90;99.90
9383;DHT22;4731;49.708;10.816;2023-06-22T17:55:22;31.80;99.90